sensor_id;sensor_type;location;lat;lon;timestamp;P1;durP1;ratioP1;P2;durP2;ratioP2
74741;SDS011;63265;48.288;16.314;2022-10-16T00:01:20;19.73;;;17.52;;
74741;SDS011;63265;48.288;16.314;2022-10-16T00:03:48;22.63;;;18.35;;
74741;SDS011;63265;48.288;16.314;2022-10-16T00:06:14;21.60;;;18.67;;
74741;SDS011;63265;48.288;16.314;2022-10-16T00:08:42;20.55;;;17.90;;
74741;SDS011;63265;48.288;16.314;2022-10-16T00:13:39;21.65;;;17.70;;
74741;SDS011;63265;48.288;16.314;2022-10-16T00:16:06;19.30;;;17.20;;
74741;SDS011;63265;48.288;16.314;2022-10-16T00:18:33;22.10;;;18.33;;
74741;SDS011;63265;48.288;16.314;2022-10-16T00:21:03;23.65;;;18.42;;
74741;SDS011;63265;48.288;16.314;2022-10-16T00:23:30;22.80;;;19.13;;
74741;SDS011;63265;48.288;16.314;2022-10-16T00:25:57;22.95;;;17.70;;
74741;SDS011;63265;48.288;16.314;2022-10-16T00:28:24;21.38;;;17.38;;
74741;SDS011;63265;48.288;16.314;2022-10-16T00:30:50;20.02;;;17.88;;
74741;SDS011;63265;48.288;16.314;2022-10-16T00:33:16;19.80;;;16.48;;
74741;SDS011;63265;48.288;16.314;2022-10-16T00:35:42;23.63;;;18.30;;
74741;SDS011;63265;48.288;16.314;2022-10-16T00:38:08;19.48;;;17.38;;
74741;SDS011;63265;48.288;16.314;2022-10-16T00:40:34;19.30;;;16.80;;
74741;SDS011;63265;48.288;16.314;2022-10-16T00:43:00;19.50;;;17.40;;
74741;SDS011;63265;48.288;16.314;2022-10-16T00:45:26;22.23;;;17.73;;
74741;SDS011;63265;48.288;16.314;2022-10-16T00:47:51;20.70;;;17.88;;
74741;SDS011;63265;48.288;16.314;2022-10-16T00:52:55;18.73;;;16.65;;
74741;SDS011;63265;48.288;16.314;2022-10-16T00:55:22;19.83;;;16.65;;
74741;SDS011;63265;48.288;16.314;2022-10-16T00:57:49;20.27;;;17.40;;
74741;SDS011;63265;48.288;16.314;2022-10-16T01:00:21;20.25;;;16.25;;
74741;SDS011;63265;48.288;16.314;2022-10-16T01:02:54;21.60;;;16.95;;
74741;SDS011;63265;48.288;16.314;2022-10-16T01:05:22;19.23;;;15.98;;
74741;SDS011;63265;48.288;16.314;2022-10-16T01:10:48;19.83;;;16.20;;
74741;SDS011;63265;48.288;16.314;2022-10-16T01:13:27;20.10;;;16.25;;
74741;SDS011;63265;48.288;16.314;2022-10-16T01:18:44;18.48;;;16.35;;
74741;SDS011;63265;48.288;16.314;2022-10-16T01:26:36;17.75;;;15.77;;
74741;SDS011;63265;48.288;16.314;2022-10-16T01:29:29;18.80;;;16.80;;
74741;SDS011;63265;48.288;16.314;2022-10-16T01:35:01;17.40;;;15.30;;
74741;SDS011;63265;48.288;16.314;2022-10-16T01:40:10;18.52;;;15.70;;
74741;SDS011;63265;48.288;16.314;2022-10-16T01:42:39;18.02;;;15.90;;
74741;SDS011;63265;48.288;16.314;2022-10-16T01:45:19;17.88;;;16.00;;
74741;SDS011;63265;48.288;16.314;2022-10-16T01:47:46;17.33;;;15.30;;
74741;SDS011;63265;48.288;16.314;2022-10-16T01:50:14;17.50;;;15.60;;
74741;SDS011;63265;48.288;16.314;2022-10-16T01:52:43;19.67;;;15.75;;
74741;SDS011;63265;48.288;16.314;2022-10-16T01:55:12;17.45;;;15.68;;
74741;SDS011;63265;48.288;16.314;2022-10-16T01:57:44;16.92;;;15.07;;
74741;SDS011;63265;48.288;16.314;2022-10-16T02:00:13;18.52;;;15.50;;
74741;SDS011;63265;48.288;16.314;2022-10-16T02:02:42;16.58;;;14.88;;
74741;SDS011;63265;48.288;16.314;2022-10-16T02:05:32;16.95;;;15.10;;
74741;SDS011;63265;48.288;16.314;2022-10-16T02:08:03;18.40;;;15.30;;
74741;SDS011;63265;48.288;16.314;2022-10-16T02:10:29;15.93;;;14.25;;
74741;SDS011;63265;48.288;16.314;2022-10-16T02:13:17;16.85;;;15.07;;
74741;SDS011;63265;48.288;16.314;2022-10-16T02:16:00;16.60;;;14.80;;
74741;SDS011;63265;48.288;16.314;2022-10-16T02:18:26;17.50;;;14.68;;
74741;SDS011;63265;48.288;16.314;2022-10-16T02:20:59;16.85;;;14.88;;
74741;SDS011;63265;48.288;16.314;2022-10-16T02:23:38;18.40;;;15.20;;
74741;SDS011;63265;48.288;16.314;2022-10-16T02:26:33;18.35;;;14.75;;
74741;SDS011;63265;48.288;16.314;2022-10-16T02:29:07;17.80;;;15.38;;
74741;SDS011;63265;48.288;16.314;2022-10-16T02:31:38;16.63;;;14.63;;
74741;SDS011;63265;48.288;16.314;2022-10-16T02:34:08;16.70;;;14.05;;
74741;SDS011;63265;48.288;16.314;2022-10-16T02:36:36;15.52;;;13.93;;
74741;SDS011;63265;48.288;16.314;2022-10-16T02:39:04;16.10;;;14.40;;
74741;SDS011;63265;48.288;16.314;2022-10-16T02:41:30;16.30;;;14.57;;
74741;SDS011;63265;48.288;16.314;2022-10-16T02:43:56;16.15;;;14.52;;
74741;SDS011;63265;48.288;16.314;2022-10-16T02:46:22;16.00;;;13.95;;
74741;SDS011;63265;48.288;16.314;2022-10-16T02:48:48;16.08;;;13.93;;
74741;SDS011;63265;48.288;16.314;2022-10-16T02:51:13;15.35;;;13.77;;
74741;SDS011;63265;48.288;16.314;2022-10-16T02:53:39;16.42;;;14.43;;
74741;SDS011;63265;48.288;16.314;2022-10-16T02:56:04;15.80;;;14.23;;
74741;SDS011;63265;48.288;16.314;2022-10-16T02:58:30;15.98;;;14.23;;
74741;SDS011;63265;48.288;16.314;2022-10-16T03:00:56;15.90;;;14.25;;
74741;SDS011;63265;48.288;16.314;2022-10-16T03:03:21;15.88;;;14.18;;
74741;SDS011;63265;48.288;16.314;2022-10-16T03:05:47;15.82;;;13.63;;
74741;SDS011;63265;48.288;16.314;2022-10-16T03:08:13;16.10;;;14.50;;
74741;SDS011;63265;48.288;16.314;2022-10-16T03:10:38;16.48;;;14.73;;
74741;SDS011;63265;48.288;16.314;2022-10-16T03:13:04;16.08;;;14.38;;
74741;SDS011;63265;48.288;16.314;2022-10-16T03:15:30;15.65;;;14.05;;
74741;SDS011;63265;48.288;16.314;2022-10-16T03:17:58;16.23;;;14.27;;
74741;SDS011;63265;48.288;16.314;2022-10-16T03:20:24;15.95;;;14.05;;
74741;SDS011;63265;48.288;16.314;2022-10-16T03:22:51;16.17;;;14.48;;
74741;SDS011;63265;48.288;16.314;2022-10-16T03:25:16;15.13;;;13.52;;
74741;SDS011;63265;48.288;16.314;2022-10-16T03:27:42;15.50;;;13.80;;
74741;SDS011;63265;48.288;16.314;2022-10-16T03:30:08;16.08;;;13.80;;
74741;SDS011;63265;48.288;16.314;2022-10-16T03:32:34;15.32;;;13.75;;
74741;SDS011;63265;48.288;16.314;2022-10-16T03:35:00;15.57;;;13.98;;
74741;SDS011;63265;48.288;16.314;2022-10-16T03:37:25;15.05;;;13.55;;
74741;SDS011;63265;48.288;16.314;2022-10-16T03:39:51;16.33;;;13.65;;
74741;SDS011;63265;48.288;16.314;2022-10-16T03:42:17;16.23;;;14.20;;
74741;SDS011;63265;48.288;16.314;2022-10-16T03:44:43;15.15;;;13.55;;
74741;SDS011;63265;48.288;16.314;2022-10-16T03:47:09;15.15;;;13.73;;
74741;SDS011;63265;48.288;16.314;2022-10-16T03:49:34;15.38;;;13.80;;
74741;SDS011;63265;48.288;16.314;2022-10-16T03:52:00;14.45;;;12.95;;
74741;SDS011;63265;48.288;16.314;2022-10-16T03:54:25;14.32;;;12.88;;
74741;SDS011;63265;48.288;16.314;2022-10-16T03:56:51;15.63;;;13.30;;
74741;SDS011;63265;48.288;16.314;2022-10-16T03:59:16;14.27;;;12.75;;
74741;SDS011;63265;48.288;16.314;2022-10-16T04:01:42;14.68;;;13.23;;
74741;SDS011;63265;48.288;16.314;2022-10-16T04:04:08;14.93;;;13.43;;
74741;SDS011;63265;48.288;16.314;2022-10-16T04:06:33;14.82;;;13.32;;
74741;SDS011;63265;48.288;16.314;2022-10-16T04:08:59;16.55;;;14.02;;
74741;SDS011;63265;48.288;16.314;2022-10-16T04:11:25;14.27;;;12.85;;
74741;SDS011;63265;48.288;16.314;2022-10-16T04:13:50;14.82;;;13.38;;
74741;SDS011;63265;48.288;16.314;2022-10-16T04:16:16;14.73;;;13.20;;
74741;SDS011;63265;48.288;16.314;2022-10-16T04:18:41;16.15;;;14.20;;
74741;SDS011;63265;48.288;16.314;2022-10-16T04:21:07;15.02;;;13.50;;
74741;SDS011;63265;48.288;16.314;2022-10-16T04:23:33;15.32;;;13.70;;
74741;SDS011;63265;48.288;16.314;2022-10-16T04:25:59;14.90;;;13.27;;
74741;SDS011;63265;48.288;16.314;2022-10-16T04:28:25;15.73;;;13.93;;
74741;SDS011;63265;48.288;16.314;2022-10-16T04:30:51;15.95;;;13.55;;
74741;SDS011;63265;48.288;16.314;2022-10-16T04:33:17;16.05;;;13.85;;
74741;SDS011;63265;48.288;16.314;2022-10-16T04:35:43;15.23;;;13.63;;
74741;SDS011;63265;48.288;16.314;2022-10-16T04:38:08;15.75;;;14.20;;
74741;SDS011;63265;48.288;16.314;2022-10-16T04:40:34;14.48;;;12.80;;
74741;SDS011;63265;48.288;16.314;2022-10-16T04:43:02;14.63;;;13.13;;
74741;SDS011;63265;48.288;16.314;2022-10-16T04:45:28;15.02;;;12.93;;
74741;SDS011;63265;48.288;16.314;2022-10-16T04:47:56;16.10;;;13.73;;
74741;SDS011;63265;48.288;16.314;2022-10-16T04:50:22;14.93;;;13.43;;
74741;SDS011;63265;48.288;16.314;2022-10-16T04:52:48;13.93;;;12.43;;
74741;SDS011;63265;48.288;16.314;2022-10-16T04:55:14;16.73;;;13.80;;
74741;SDS011;63265;48.288;16.314;2022-10-16T04:57:40;13.95;;;12.27;;
74741;SDS011;63265;48.288;16.314;2022-10-16T05:00:05;14.27;;;12.75;;
74741;SDS011;63265;48.288;16.314;2022-10-16T05:02:32;14.57;;;13.05;;
74741;SDS011;63265;48.288;16.314;2022-10-16T05:04:58;14.98;;;13.38;;
74741;SDS011;63265;48.288;16.314;2022-10-16T05:07:24;14.82;;;13.23;;
74741;SDS011;63265;48.288;16.314;2022-10-16T05:09:49;14.57;;;13.10;;
74741;SDS011;63265;48.288;16.314;2022-10-16T05:12:15;14.88;;;13.38;;
74741;SDS011;63265;48.288;16.314;2022-10-16T05:14:41;14.13;;;12.65;;
74741;SDS011;63265;48.288;16.314;2022-10-16T05:17:06;14.68;;;12.50;;
74741;SDS011;63265;48.288;16.314;2022-10-16T05:19:32;14.65;;;13.15;;
74741;SDS011;63265;48.288;16.314;2022-10-16T05:21:57;14.27;;;12.77;;
74741;SDS011;63265;48.288;16.314;2022-10-16T05:24:23;14.40;;;12.90;;
74741;SDS011;63265;48.288;16.314;2022-10-16T05:26:49;14.20;;;12.70;;
74741;SDS011;63265;48.288;16.314;2022-10-16T05:29:15;14.20;;;12.77;;
74741;SDS011;63265;48.288;16.314;2022-10-16T05:31:41;14.43;;;12.80;;
74741;SDS011;63265;48.288;16.314;2022-10-16T05:34:07;14.95;;;12.73;;
74741;SDS011;63265;48.288;16.314;2022-10-16T05:36:32;15.93;;;12.32;;
74741;SDS011;63265;48.288;16.314;2022-10-16T05:38:58;15.57;;;12.63;;
74741;SDS011;63265;48.288;16.314;2022-10-16T05:41:23;16.50;;;12.65;;
74741;SDS011;63265;48.288;16.314;2022-10-16T05:43:51;14.98;;;13.05;;
74741;SDS011;63265;48.288;16.314;2022-10-16T05:46:16;20.80;;;12.60;;
74741;SDS011;63265;48.288;16.314;2022-10-16T05:48:42;26.95;;;13.07;;
74741;SDS011;63265;48.288;16.314;2022-10-16T05:51:10;23.73;;;12.93;;
74741;SDS011;63265;48.288;16.314;2022-10-16T05:53:37;24.65;;;12.05;;
74741;SDS011;63265;48.288;16.314;2022-10-16T05:56:03;21.63;;;12.70;;
74741;SDS011;63265;48.288;16.314;2022-10-16T05:58:36;19.70;;;12.82;;
74741;SDS011;63265;48.288;16.314;2022-10-16T06:01:06;17.40;;;12.68;;
74741;SDS011;63265;48.288;16.314;2022-10-16T06:03:35;16.73;;;12.27;;
74741;SDS011;63265;48.288;16.314;2022-10-16T06:06:11;18.73;;;12.60;;
74741;SDS011;63265;48.288;16.314;2022-10-16T06:08:41;16.42;;;11.63;;
74741;SDS011;63265;48.288;16.314;2022-10-16T06:11:09;19.80;;;12.95;;
74741;SDS011;63265;48.288;16.314;2022-10-16T06:13:40;19.48;;;13.10;;
74741;SDS011;63265;48.288;16.314;2022-10-16T06:16:07;26.15;;;11.75;;
74741;SDS011;63265;48.288;16.314;2022-10-16T06:18:34;24.23;;;12.32;;
74741;SDS011;63265;48.288;16.314;2022-10-16T06:20:59;25.25;;;12.07;;
74741;SDS011;63265;48.288;16.314;2022-10-16T06:23:33;28.92;;;12.48;;
74741;SDS011;63265;48.288;16.314;2022-10-16T06:26:09;21.02;;;11.93;;
74741;SDS011;63265;48.288;16.314;2022-10-16T06:28:36;26.38;;;12.15;;
74741;SDS011;63265;48.288;16.314;2022-10-16T06:31:03;25.05;;;11.98;;
74741;SDS011;63265;48.288;16.314;2022-10-16T06:33:29;20.48;;;11.90;;
74741;SDS011;63265;48.288;16.314;2022-10-16T06:36:02;21.23;;;12.07;;
74741;SDS011;63265;48.288;16.314;2022-10-16T06:38:29;23.27;;;11.85;;
74741;SDS011;63265;48.288;16.314;2022-10-16T06:40:55;21.92;;;11.32;;
74741;SDS011;63265;48.288;16.314;2022-10-16T06:43:21;16.48;;;11.40;;
74741;SDS011;63265;48.288;16.314;2022-10-16T06:45:51;18.23;;;11.65;;
74741;SDS011;63265;48.288;16.314;2022-10-16T06:48:17;25.48;;;11.40;;
74741;SDS011;63265;48.288;16.314;2022-10-16T06:50:43;14.73;;;11.15;;
74741;SDS011;63265;48.288;16.314;2022-10-16T06:53:08;18.80;;;11.32;;
74741;SDS011;63265;48.288;16.314;2022-10-16T06:55:34;17.88;;;11.70;;
74741;SDS011;63265;48.288;16.314;2022-10-16T06:57:59;19.13;;;11.48;;
74741;SDS011;63265;48.288;16.314;2022-10-16T07:00:25;14.85;;;11.30;;
74741;SDS011;63265;48.288;16.314;2022-10-16T07:02:51;19.67;;;11.25;;
74741;SDS011;63265;48.288;16.314;2022-10-16T07:05:16;17.10;;;11.30;;
74741;SDS011;63265;48.288;16.314;2022-10-16T07:07:42;14.70;;;11.02;;
74741;SDS011;63265;48.288;16.314;2022-10-16T07:10:08;19.70;;;12.57;;
74741;SDS011;63265;48.288;16.314;2022-10-16T07:12:33;19.45;;;12.15;;
74741;SDS011;63265;48.288;16.314;2022-10-16T07:14:59;18.75;;;13.30;;
74741;SDS011;63265;48.288;16.314;2022-10-16T07:17:24;18.83;;;13.73;;
74741;SDS011;63265;48.288;16.314;2022-10-16T07:19:50;16.42;;;13.27;;
74741;SDS011;63265;48.288;16.314;2022-10-16T07:22:18;17.77;;;13.57;;
74741;SDS011;63265;48.288;16.314;2022-10-16T07:24:43;20.63;;;13.38;;
74741;SDS011;63265;48.288;16.314;2022-10-16T07:27:09;21.80;;;14.57;;
74741;SDS011;63265;48.288;16.314;2022-10-16T07:29:35;17.45;;;14.02;;
74741;SDS011;63265;48.288;16.314;2022-10-16T07:32:01;19.33;;;14.07;;
74741;SDS011;63265;48.288;16.314;2022-10-16T07:34:27;23.50;;;14.25;;
74741;SDS011;63265;48.288;16.314;2022-10-16T07:36:52;18.52;;;14.00;;
74741;SDS011;63265;48.288;16.314;2022-10-16T07:39:18;21.38;;;13.57;;
74741;SDS011;63265;48.288;16.314;2022-10-16T07:41:44;23.80;;;14.00;;
74741;SDS011;63265;48.288;16.314;2022-10-16T07:44:10;22.60;;;13.75;;
74741;SDS011;63265;48.288;16.314;2022-10-16T07:46:35;17.25;;;13.63;;
74741;SDS011;63265;48.288;16.314;2022-10-16T07:49:02;19.48;;;13.48;;
74741;SDS011;63265;48.288;16.314;2022-10-16T07:51:28;25.45;;;13.23;;
74741;SDS011;63265;48.288;16.314;2022-10-16T07:53:53;21.25;;;12.68;;
74741;SDS011;63265;48.288;16.314;2022-10-16T07:56:20;23.50;;;13.15;;
74741;SDS011;63265;48.288;16.314;2022-10-16T07:58:46;23.10;;;12.95;;
74741;SDS011;63265;48.288;16.314;2022-10-16T08:01:14;28.77;;;13.15;;
74741;SDS011;63265;48.288;16.314;2022-10-16T08:03:41;42.75;;;12.88;;
74741;SDS011;63265;48.288;16.314;2022-10-16T08:06:08;56.67;;;14.63;;
74741;SDS011;63265;48.288;16.314;2022-10-16T08:08:34;51.47;;;14.50;;
74741;SDS011;63265;48.288;16.314;2022-10-16T08:11:00;49.92;;;13.65;;
74741;SDS011;63265;48.288;16.314;2022-10-16T08:13:28;53.40;;;13.95;;
74741;SDS011;63265;48.288;16.314;2022-10-16T08:15:54;64.35;;;13.88;;
74741;SDS011;63265;48.288;16.314;2022-10-16T08:18:20;67.32;;;14.38;;
74741;SDS011;63265;48.288;16.314;2022-10-16T08:20:46;55.00;;;15.15;;
74741;SDS011;63265;48.288;16.314;2022-10-16T08:23:12;64.40;;;14.68;;
74741;SDS011;63265;48.288;16.314;2022-10-16T08:25:38;72.43;;;15.10;;
74741;SDS011;63265;48.288;16.314;2022-10-16T08:28:05;71.28;;;14.48;;
74741;SDS011;63265;48.288;16.314;2022-10-16T08:30:32;72.95;;;14.43;;
74741;SDS011;63265;48.288;16.314;2022-10-16T08:32:58;80.88;;;14.50;;
74741;SDS011;63265;48.288;16.314;2022-10-16T08:35:24;64.13;;;14.20;;
74741;SDS011;63265;48.288;16.314;2022-10-16T08:37:49;67.47;;;14.77;;
74741;SDS011;63265;48.288;16.314;2022-10-16T08:40:27;65.80;;;14.20;;
74741;SDS011;63265;48.288;16.314;2022-10-16T08:50:44;43.08;;;13.68;;
74741;SDS011;63265;48.288;16.314;2022-10-16T08:53:17;54.97;;;14.02;;
74741;SDS011;63265;48.288;16.314;2022-10-16T08:55:54;54.53;;;14.50;;
74741;SDS011;63265;48.288;16.314;2022-10-16T08:58:21;49.53;;;13.95;;
74741;SDS011;63265;48.288;16.314;2022-10-16T09:00:55;41.50;;;13.23;;
74741;SDS011;63265;48.288;16.314;2022-10-16T09:03:24;39.72;;;13.30;;
74741;SDS011;63265;48.288;16.314;2022-10-16T09:09:31;43.95;;;13.02;;
74741;SDS011;63265;48.288;16.314;2022-10-16T09:11:50;44.67;;;13.23;;
74741;SDS011;63265;48.288;16.314;2022-10-16T09:23:13;26.83;;;13.00;;
74741;SDS011;63265;48.288;16.314;2022-10-16T09:25:44;26.77;;;13.32;;
74741;SDS011;63265;48.288;16.314;2022-10-16T09:28:12;26.30;;;13.63;;
74741;SDS011;63265;48.288;16.314;2022-10-16T09:30:38;34.78;;;14.88;;
74741;SDS011;63265;48.288;16.314;2022-10-16T09:33:04;32.45;;;13.82;;
74741;SDS011;63265;48.288;16.314;2022-10-16T09:35:32;36.90;;;14.15;;
74741;SDS011;63265;48.288;16.314;2022-10-16T09:38:08;25.92;;;13.80;;
74741;SDS011;63265;48.288;16.314;2022-10-16T09:40:35;34.67;;;14.52;;
74741;SDS011;63265;48.288;16.314;2022-10-16T09:45:58;37.58;;;14.98;;
74741;SDS011;63265;48.288;16.314;2022-10-16T09:48:50;31.40;;;14.43;;
74741;SDS011;63265;48.288;16.314;2022-10-16T09:51:26;33.75;;;14.73;;
74741;SDS011;63265;48.288;16.314;2022-10-16T09:56:38;28.75;;;14.15;;
74741;SDS011;63265;48.288;16.314;2022-10-16T10:01:43;23.90;;;14.73;;
74741;SDS011;63265;48.288;16.314;2022-10-16T10:04:09;21.60;;;13.68;;
74741;SDS011;63265;48.288;16.314;2022-10-16T10:06:56;28.17;;;14.55;;
74741;SDS011;63265;48.288;16.314;2022-10-16T10:09:25;27.70;;;14.85;;
74741;SDS011;63265;48.288;16.314;2022-10-16T10:12:02;23.33;;;13.63;;
74741;SDS011;63265;48.288;16.314;2022-10-16T10:14:38;26.70;;;13.52;;
74741;SDS011;63265;48.288;16.314;2022-10-16T10:17:09;25.20;;;15.32;;
74741;SDS011;63265;48.288;16.314;2022-10-16T10:22:18;29.90;;;15.38;;
74741;SDS011;63265;48.288;16.314;2022-10-16T10:24:58;88.18;;;50.85;;
74741;SDS011;63265;48.288;16.314;2022-10-16T10:27:49;60.28;;;35.08;;
74741;SDS011;63265;48.288;16.314;2022-10-16T10:33:15;151.02;;;96.93;;
74741;SDS011;63265;48.288;16.314;2022-10-16T10:38:48;186.85;;;128.55;;
74741;SDS011;63265;48.288;16.314;2022-10-16T10:41:22;221.87;;;159.00;;
74741;SDS011;63265;48.288;16.314;2022-10-16T10:46:48;291.67;;;221.55;;
74741;SDS011;63265;48.288;16.314;2022-10-16T10:54:37;245.27;;;177.15;;
74741;SDS011;63265;48.288;16.314;2022-10-16T11:02:41;193.73;;;142.80;;
74741;SDS011;63265;48.288;16.314;2022-10-16T11:07:53;165.55;;;123.05;;
74741;SDS011;63265;48.288;16.314;2022-10-16T11:10:40;152.48;;;112.55;;
74741;SDS011;63265;48.288;16.314;2022-10-16T11:13:32;149.05;;;109.15;;
74741;SDS011;63265;48.288;16.314;2022-10-16T11:16:04;134.68;;;103.95;;
74741;SDS011;63265;48.288;16.314;2022-10-16T11:18:51;133.75;;;100.03;;
74741;SDS011;63265;48.288;16.314;2022-10-16T11:21:42;128.55;;;95.57;;
74741;SDS011;63265;48.288;16.314;2022-10-16T11:24:30;122.13;;;90.65;;
74741;SDS011;63265;48.288;16.314;2022-10-16T11:27:25;122.97;;;84.28;;
74741;SDS011;63265;48.288;16.314;2022-10-16T11:29:59;125.00;;;85.32;;
74741;SDS011;63265;48.288;16.314;2022-10-16T11:32:30;112.85;;;81.35;;
74741;SDS011;63265;48.288;16.314;2022-10-16T11:35:06;117.53;;;80.80;;
74741;SDS011;63265;48.288;16.314;2022-10-16T11:37:48;114.90;;;79.80;;
74741;SDS011;63265;48.288;16.314;2022-10-16T11:40:25;108.95;;;77.07;;
74741;SDS011;63265;48.288;16.314;2022-10-16T11:42:57;106.60;;;73.57;;
74741;SDS011;63265;48.288;16.314;2022-10-16T11:45:34;116.47;;;73.88;;
74741;SDS011;63265;48.288;16.314;2022-10-16T11:51:24;103.68;;;68.80;;
74741;SDS011;63265;48.288;16.314;2022-10-16T11:53:58;96.70;;;65.45;;
74741;SDS011;63265;48.288;16.314;2022-10-16T11:56:40;105.45;;;65.55;;
74741;SDS011;63265;48.288;16.314;2022-10-16T12:01:53;88.40;;;61.28;;
74741;SDS011;63265;48.288;16.314;2022-10-16T12:04:50;93.85;;;62.25;;
74741;SDS011;63265;48.288;16.314;2022-10-16T12:07:36;80.45;;;58.55;;
74741;SDS011;63265;48.288;16.314;2022-10-16T12:10:27;77.55;;;58.55;;
74741;SDS011;63265;48.288;16.314;2022-10-16T12:12:52;78.47;;;56.47;;
74741;SDS011;63265;48.288;16.314;2022-10-16T12:17:52;76.15;;;55.22;;
74741;SDS011;63265;48.288;16.314;2022-10-16T12:20:23;73.32;;;55.58;;
74741;SDS011;63265;48.288;16.314;2022-10-16T12:23:02;72.28;;;54.08;;
74741;SDS011;63265;48.288;16.314;2022-10-16T12:25:31;68.65;;;51.35;;
74741;SDS011;63265;48.288;16.314;2022-10-16T12:28:00;69.30;;;52.17;;
74741;SDS011;63265;48.288;16.314;2022-10-16T12:30:32;70.30;;;52.47;;
74741;SDS011;63265;48.288;16.314;2022-10-16T12:33:01;74.85;;;51.65;;
74741;SDS011;63265;48.288;16.314;2022-10-16T12:35:30;69.13;;;51.10;;
74741;SDS011;63265;48.288;16.314;2022-10-16T12:38:06;68.32;;;51.45;;
74741;SDS011;63265;48.288;16.314;2022-10-16T12:40:37;71.15;;;51.67;;
74741;SDS011;63265;48.288;16.314;2022-10-16T12:48:35;67.05;;;47.67;;
74741;SDS011;63265;48.288;16.314;2022-10-16T12:54:10;65.03;;;48.33;;
74741;SDS011;63265;48.288;16.314;2022-10-16T13:13:13;57.22;;;44.97;;
74741;SDS011;63265;48.288;16.314;2022-10-16T13:15:51;61.15;;;44.65;;
74741;SDS011;63265;48.288;16.314;2022-10-16T13:29:13;52.35;;;42.38;;
74741;SDS011;63265;48.288;16.314;2022-10-16T13:31:39;55.03;;;43.38;;
74741;SDS011;63265;48.288;16.314;2022-10-16T13:34:05;53.97;;;41.33;;
74741;SDS011;63265;48.288;16.314;2022-10-16T13:36:43;52.28;;;41.92;;
74741;SDS011;63265;48.288;16.314;2022-10-16T13:42:00;53.22;;;42.50;;
74741;SDS011;63265;48.288;16.314;2022-10-16T13:44:35;50.65;;;41.03;;
74741;SDS011;63265;48.288;16.314;2022-10-16T13:47:17;53.97;;;41.88;;
74741;SDS011;63265;48.288;16.314;2022-10-16T13:49:45;53.70;;;40.72;;
74741;SDS011;63265;48.288;16.314;2022-10-16T13:52:20;54.20;;;41.38;;
74741;SDS011;63265;48.288;16.314;2022-10-16T13:54:47;50.67;;;41.35;;
74741;SDS011;63265;48.288;16.314;2022-10-16T13:57:16;49.30;;;39.60;;
74741;SDS011;63265;48.288;16.314;2022-10-16T13:59:42;48.15;;;39.50;;
74741;SDS011;63265;48.288;16.314;2022-10-16T14:02:14;48.67;;;39.13;;
74741;SDS011;63265;48.288;16.314;2022-10-16T14:04:43;45.25;;;38.10;;
74741;SDS011;63265;48.288;16.314;2022-10-16T14:07:20;52.53;;;38.85;;
74741;SDS011;63265;48.288;16.314;2022-10-16T14:09:50;52.30;;;40.35;;
74741;SDS011;63265;48.288;16.314;2022-10-16T14:12:17;50.47;;;38.30;;
74741;SDS011;63265;48.288;16.314;2022-10-16T14:14:46;46.72;;;37.72;;
74741;SDS011;63265;48.288;16.314;2022-10-16T14:19:47;48.88;;;38.83;;
74741;SDS011;63265;48.288;16.314;2022-10-16T14:22:57;45.80;;;38.45;;
74741;SDS011;63265;48.288;16.314;2022-10-16T14:30:49;43.92;;;36.80;;
74741;SDS011;63265;48.288;16.314;2022-10-16T14:33:23;44.42;;;37.25;;
74741;SDS011;63265;48.288;16.314;2022-10-16T14:36:05;42.92;;;36.72;;
74741;SDS011;63265;48.288;16.314;2022-10-16T14:38:36;45.88;;;36.90;;
74741;SDS011;63265;48.288;16.314;2022-10-16T14:41:04;46.22;;;36.45;;
74741;SDS011;63265;48.288;16.314;2022-10-16T14:46:06;43.30;;;35.08;;
74741;SDS011;63265;48.288;16.314;2022-10-16T14:48:40;42.75;;;34.92;;
74741;SDS011;63265;48.288;16.314;2022-10-16T14:51:08;42.92;;;36.40;;
74741;SDS011;63265;48.288;16.314;2022-10-16T14:53:39;43.47;;;35.42;;
74741;SDS011;63265;48.288;16.314;2022-10-16T14:56:24;44.50;;;36.80;;
74741;SDS011;63265;48.288;16.314;2022-10-16T14:58:53;41.78;;;35.30;;
74741;SDS011;63265;48.288;16.314;2022-10-16T15:01:20;42.70;;;34.40;;
74741;SDS011;63265;48.288;16.314;2022-10-16T15:03:46;43.63;;;35.17;;
74741;SDS011;63265;48.288;16.314;2022-10-16T15:06:15;38.85;;;33.53;;
74741;SDS011;63265;48.288;16.314;2022-10-16T15:08:41;40.63;;;33.63;;
74741;SDS011;63265;48.288;16.314;2022-10-16T15:11:14;43.33;;;33.80;;
74741;SDS011;63265;48.288;16.314;2022-10-16T15:13:41;41.42;;;33.92;;
74741;SDS011;63265;48.288;16.314;2022-10-16T15:16:11;39.22;;;32.90;;
74741;SDS011;63265;48.288;16.314;2022-10-16T15:18:38;41.30;;;33.50;;
74741;SDS011;63265;48.288;16.314;2022-10-16T15:21:03;37.90;;;33.60;;
74741;SDS011;63265;48.288;16.314;2022-10-16T15:23:29;40.97;;;33.38;;
74741;SDS011;63265;48.288;16.314;2022-10-16T15:25:55;42.08;;;33.50;;
74741;SDS011;63265;48.288;16.314;2022-10-16T15:28:22;41.83;;;32.10;;
74741;SDS011;63265;48.288;16.314;2022-10-16T15:30:49;42.15;;;33.97;;
74741;SDS011;63265;48.288;16.314;2022-10-16T15:33:17;44.70;;;33.53;;
74741;SDS011;63265;48.288;16.314;2022-10-16T15:35:47;42.90;;;33.05;;
74741;SDS011;63265;48.288;16.314;2022-10-16T15:38:13;43.67;;;32.03;;
74741;SDS011;63265;48.288;16.314;2022-10-16T15:40:39;41.47;;;34.42;;
74741;SDS011;63265;48.288;16.314;2022-10-16T15:43:06;42.70;;;31.63;;
74741;SDS011;63265;48.288;16.314;2022-10-16T15:45:32;57.50;;;34.97;;
74741;SDS011;63265;48.288;16.314;2022-10-16T15:47:57;54.95;;;34.38;;
74741;SDS011;63265;48.288;16.314;2022-10-16T15:50:23;45.83;;;34.50;;
74741;SDS011;63265;48.288;16.314;2022-10-16T15:52:49;43.28;;;34.08;;
74741;SDS011;63265;48.288;16.314;2022-10-16T15:55:16;56.38;;;34.50;;
74741;SDS011;63265;48.288;16.314;2022-10-16T15:57:43;51.60;;;34.67;;
74741;SDS011;63265;48.288;16.314;2022-10-16T16:00:14;49.53;;;35.92;;
74741;SDS011;63265;48.288;16.314;2022-10-16T16:02:43;55.95;;;35.17;;
74741;SDS011;63265;48.288;16.314;2022-10-16T16:05:14;55.33;;;35.33;;
74741;SDS011;63265;48.288;16.314;2022-10-16T16:07:40;53.88;;;35.35;;
74741;SDS011;63265;48.288;16.314;2022-10-16T16:10:06;50.13;;;34.28;;
74741;SDS011;63265;48.288;16.314;2022-10-16T16:12:34;52.17;;;34.65;;
74741;SDS011;63265;48.288;16.314;2022-10-16T16:15:01;55.38;;;35.10;;
74741;SDS011;63265;48.288;16.314;2022-10-16T16:17:28;53.10;;;33.72;;
74741;SDS011;63265;48.288;16.314;2022-10-16T16:19:55;53.60;;;35.22;;
74741;SDS011;63265;48.288;16.314;2022-10-16T16:22:21;54.00;;;35.58;;
74741;SDS011;63265;48.288;16.314;2022-10-16T16:24:47;46.67;;;33.67;;
74741;SDS011;63265;48.288;16.314;2022-10-16T16:27:12;49.30;;;34.40;;
74741;SDS011;63265;48.288;16.314;2022-10-16T16:29:38;42.17;;;33.97;;
74741;SDS011;63265;48.288;16.314;2022-10-16T16:32:04;46.33;;;34.22;;
74741;SDS011;63265;48.288;16.314;2022-10-16T16:34:30;50.15;;;33.33;;